Terminal Aerodrome Forecast
Issued by NWS

Home | Current Version | Previous Version | Text Only | Print | Product List | Glossary On
Versions: 1 2 3 4 5 6 7 8 9 10 11 12 13 14 15 16 17
000
FTUS42 KTBW 312349
TAFPGD
TAF
KPGD 312349Z 0100/0124 VRB04KT P6SM FEW025 SCT200
     FM011400 19008KT P6SM SCT025 SCT100 SCT150
     FM011700 22012KT P6SM VCTS SCT035CB SCT100 BKN150=

USA.gov is the U.S. government's official web portal to all federal, state and local government web resources and services.